Terminal Aerodrome Forecast
Issued by NWS Omaha/Valley, NE

Home | Current Version | Previous Version | Text Only | Print | Product List | Glossary On
Versions: 1 2 3 4 5 6 7 8 9 10 11 12 13 14 15 16 17 18 19 20 21 22 23 24 25 26 27 28 29
000
FTUS43 KOAX 262320
TAFOFK
TAF
KOFK 262320Z 2700/2724 01006KT P6SM OVC014
     FM270800 01003KT P6SM OVC009
      TEMPO 2711/2714 4SM BR
     FM271500 03005KT P6SM BKN015
     FM271800 01005KT P6SM SCT040
     FM272300 05005KT P6SM FEW150=

USA.gov is the U.S. government's official web portal to all federal, state and local government web resources and services.